Time;durP1;ratioP1;P1;durP2;ratioP2;P2;SDS_P1;SDS_P2;PMS_P1;PMS_P2;Temp;Humidity;BMP_temperature;BMP_pressure;BME280_temperature;BME280_humidity;BME280_pressure;Samples;Min_cycle;Max_cycle;Signal;HPM_P1;HPM_P2
2022/04/15 00:03:22;;;;;;;2.78;2.40;;;;;;;;;;10267517;28;20442;-66
2022/04/15 00:08:21;;;;;;;6.20;2.50;;;;;;;;;;10261517;28;20083;-66
2022/04/15 00:13:24;;;;;;;7.53;4.03;;;;;;;;;;10266687;28;20071;-66
2022/04/15 00:18:24;;;;;;;4.03;2.38;;;;;;;;;;10266352;28;20071;-66
2022/04/15 00:23:23;;;;;;;3.20;2.45;;;;;;;;;;10260147;28;20064;-66
2022/04/15 00:28:21;;;;;;;3.75;2.20;;;;;;;;;;10258233;28;20065;-65
2022/04/15 00:33:21;;;;;;;6.70;2.80;;;;;;;;;;10261500;28;20099;-66
2022/04/15 00:38:21;;;;;;;2.95;2.65;;;;;;;;;;10265818;28;20041;-66
2022/04/15 00:43:19;;;;;;;3.85;2.50;;;;;;;;;;10260641;28;20525;-65
2022/04/15 00:48:19;;;;;;;6.25;4.60;;;;;;;;;;10265212;28;20080;-66
2022/04/15 00:53:22;;;;;;;13.85;4.95;;;;;;;;;;10265339;28;20079;-65
2022/04/15 00:58:23;;;;;;;4.55;3.50;;;;;;;;;;10270706;28;20045;-65
2022/04/15 01:03:23;;;;;;;5.18;3.15;;;;;;;;;;10265039;28;20076;-65
2022/04/15 01:08:23;;;;;;;4.85;3.25;;;;;;;;;;10258228;28;20080;-65
2022/04/15 01:13:24;;;;;;;5.55;3.47;;;;;;;;;;10258167;28;20037;-66
2022/04/15 01:18:24;;;;;;;4.13;3.03;;;;;;;;;;10264507;28;20079;-65
2022/04/15 01:23:23;;;;;;;5.63;3.35;;;;;;;;;;10258015;28;20064;-65
2022/04/15 01:28:22;;;;;;;4.75;3.17;;;;;;;;;;10258589;28;20068;-65
2022/04/15 01:33:20;;;;;;;6.25;3.42;;;;;;;;;;10263995;28;20071;-65
2022/04/15 01:38:22;;;;;;;7.32;3.17;;;;;;;;;;10262534;28;20151;-65
2022/04/15 01:43:22;;;;;;;9.25;3.10;;;;;;;;;;10257644;28;20080;-65
2022/04/15 01:48:20;;;;;;;4.38;3.25;;;;;;;;;;10264084;28;20468;-65
2022/04/15 01:53:22;;;;;;;3.90;3.05;;;;;;;;;;10263947;28;20075;-65
2022/04/15 01:58:22;;;;;;;5.65;4.07;;;;;;;;;;10257206;28;20052;-65
2022/04/15 02:03:20;;;;;;;4.85;3.67;;;;;;;;;;10255723;28;20485;-65
2022/04/15 02:08:18;;;;;;;7.10;3.38;;;;;;;;;;10263255;28;20045;-65
2022/04/15 02:13:17;;;;;;;6.57;3.72;;;;;;;;;;10263344;28;20514;-64
2022/04/15 02:18:16;;;;;;;4.82;3.90;;;;;;;;;;10262465;28;20072;-65
2022/04/15 02:23:15;;;;;;;6.20;3.75;;;;;;;;;;10270953;28;20071;-65
2022/04/15 02:28:13;;;;;;;8.52;3.90;;;;;;;;;;10270975;28;20065;-65
2022/04/15 02:33:11;;;;;;;6.88;3.22;;;;;;;;;;10270622;28;20076;-65
2022/04/15 02:38:11;;;;;;;5.68;3.47;;;;;;;;;;10270391;28;20497;-65
2022/04/15 02:43:10;;;;;;;4.22;3.83;;;;;;;;;;10270060;28;20093;-65
2022/04/15 02:48:08;;;;;;;5.50;3.80;;;;;;;;;;10270190;28;20072;-65
2022/04/15 02:53:06;;;;;;;7.35;3.95;;;;;;;;;;10269351;28;20496;-65
2022/04/15 02:58:06;;;;;;;4.68;3.55;;;;;;;;;;10269938;28;20076;-66
2022/04/15 03:03:05;;;;;;;8.52;4.47;;;;;;;;;;10268466;28;20076;-65
2022/04/15 03:08:03;;;;;;;50.80;45.80;;;;;;;;;;10269738;28;20091;-66
2022/04/15 03:13:02;;;;;;;19.73;17.65;;;;;;;;;;10269627;28;20074;-65
2022/04/15 03:18:02;;;;;;;7.00;4.00;;;;;;;;;;10266293;28;20076;-65
2022/04/15 03:23:00;;;;;;;7.20;5.53;;;;;;;;;;10266633;28;20080;-66
2022/04/15 03:28:00;;;;;;;5.18;4.10;;;;;;;;;;10268052;28;20080;-65
2022/04/15 03:32:58;;;;;;;7.60;4.53;;;;;;;;;;10265267;28;20075;-65
2022/04/15 03:37:59;;;;;;;6.68;4.30;;;;;;;;;;10265237;28;20076;-65
2022/04/15 03:42:57;;;;;;;7.72;3.95;;;;;;;;;;10267652;28;20089;-65
2022/04/15 03:47:55;;;;;;;5.45;4.30;;;;;;;;;;10268136;28;20080;-66
2022/04/15 03:52:54;;;;;;;5.15;4.60;;;;;;;;;;10267543;28;20065;-66
2022/04/15 03:57:54;;;;;;;7.63;4.15;;;;;;;;;;10267363;28;20087;-66
2022/04/15 04:02:52;;;;;;;8.82;4.93;;;;;;;;;;10267084;28;20540;-66
2022/04/15 04:07:51;;;;;;;5.38;4.38;;;;;;;;;;10265459;28;20073;-66
2022/04/15 04:12:51;;;;;;;23.65;11.98;;;;;;;;;;10267674;28;20069;-67
2022/04/15 04:17:51;;;;;;;5.75;4.05;;;;;;;;;;10262146;28;20506;-66
2022/04/15 04:22:49;;;;;;;6.13;4.20;;;;;;;;;;10263693;28;20068;-65
2022/04/15 04:27:47;;;;;;;10.68;5.65;;;;;;;;;;10269058;28;20469;-67
2022/04/15 04:32:49;;;;;;;13.73;8.35;;;;;;;;;;10268623;28;20064;-67
2022/04/15 04:37:49;;;;;;;17.52;8.35;;;;;;;;;;10266429;28;20080;-65
2022/04/15 04:42:48;;;;;;;24.10;8.95;;;;;;;;;;10262875;28;20481;-65
2022/04/15 04:47:47;;;;;;;26.63;12.32;;;;;;;;;;10261180;28;20046;-65
2022/04/15 04:52:46;;;;;;;53.42;16.58;;;;;;;;;;10265026;28;20048;-66
2022/04/15 04:57:46;;;;;;;41.30;17.00;;;;;;;;;;10259809;28;20069;-65
2022/04/15 05:02:45;;;;;;;46.10;20.23;;;;;;;;;;10270186;28;20490;-66
2022/04/15 05:07:43;;;;;;;23.25;11.13;;;;;;;;;;10260938;28;20077;-65
2022/04/15 05:12:41;;;;;;;33.90;11.88;;;;;;;;;;10269347;28;20073;-66
2022/04/15 05:17:41;;;;;;;35.97;15.25;;;;;;;;;;10269290;28;20486;-65
2022/04/15 05:22:39;;;;;;;14.93;9.00;;;;;;;;;;10258888;28;20072;-65
2022/04/15 05:27:37;;;;;;;4.68;4.20;;;;;;;;;;10257593;28;20073;-66
2022/04/15 05:32:36;;;;;;;9.95;4.57;;;;;;;;;;10263726;28;20048;-65
2022/04/15 05:37:35;;;;;;;6.35;4.60;;;;;;;;;;10263990;28;20081;-66
2022/04/15 05:42:33;;;;;;;10.20;4.70;;;;;;;;;;10256956;28;20495;-65
2022/04/15 05:47:31;;;;;;;6.65;4.47;;;;;;;;;;10243006;28;20423;-66
2022/04/15 05:52:30;;;;;;;5.85;5.18;;;;;;;;;;10263133;28;20544;-65
2022/04/15 05:57:29;;;;;;;7.18;4.40;;;;;;;;;;10271743;28;20080;-65
2022/04/15 06:02:27;;;;;;;10.77;3.92;;;;;;;;;;10271278;28;20072;-65
2022/04/15 06:07:26;;;;;;;5.47;4.60;;;;;;;;;;10271419;28;20124;-65
2022/04/15 06:12:54;;;;;;;10.20;5.13;;;;;;;;;;10271422;28;20103;-66
2022/04/15 06:17:50;;;;;;;;;;;;;;;;;;10270942;28;20069;-66
2022/04/15 06:22:49;;;;;;;20.10;4.85;;;;;;;;;;10270677;28;19998;-66
2022/04/15 06:27:49;;;;;;;19.25;4.75;;;;;;;;;;10264241;28;20072;-65
2022/04/15 06:32:47;;;;;;;14.40;5.65;;;;;;;;;;10267606;28;20076;-66
2022/04/15 06:37:45;;;;;;;63.55;40.72;;;;;;;;;;10270526;28;20072;-67
2022/04/15 06:42:45;;;;;;;58.42;30.98;;;;;;;;;;10270298;28;20466;-67
2022/04/15 06:47:43;;;;;;;43.22;24.40;;;;;;;;;;10265462;28;20422;-67
2022/04/15 06:52:42;;;;;;;28.30;16.55;;;;;;;;;;10269982;28;20046;-67
2022/04/15 06:57:40;;;;;;;29.63;14.52;;;;;;;;;;10269259;28;20041;-67
2022/04/15 07:02:40;;;;;;;25.95;12.13;;;;;;;;;;10268973;28;20129;-67
2022/04/15 07:07:39;;;;;;;22.40;9.63;;;;;;;;;;10268912;28;20064;-66
2022/04/15 07:12:37;;;;;;;14.68;8.82;;;;;;;;;;10268999;28;20061;-66
2022/04/15 07:17:35;;;;;;;12.75;4.47;;;;;;;;;;10268656;28;20300;-66
2022/04/15 07:22:35;;;;;;;11.75;4.53;;;;;;;;;;10262493;28;20073;-66
2022/04/15 07:27:33;;;;;;;11.60;4.15;;;;;;;;;;10265753;28;20072;-65
2022/04/15 07:32:31;;;;;;;8.07;4.45;;;;;;;;;;10268689;28;20076;-66
2022/04/15 07:37:29;;;;;;;12.55;4.40;;;;;;;;;;10268432;28;20544;-65
2022/04/15 07:42:29;;;;;;;10.50;3.92;;;;;;;;;;10268444;28;20493;-65
2022/04/15 07:47:27;;;;;;;11.40;3.80;;;;;;;;;;10268336;28;20076;-65
2022/04/15 07:52:46;;;;;;;10.82;3.60;;;;;;;;;;10262698;28;20087;-66
2022/04/15 07:57:45;;;;;;;7.80;3.60;;;;;;;;;;10267689;28;20072;-65
2022/04/15 08:02:43;;;;;;;12.55;6.15;;;;;;;;;;10267091;28;20475;-65
2022/04/15 08:07:42;;;;;;;6.63;2.92;;;;;;;;;;10264043;28;20077;-65
2022/04/15 08:12:40;;;;;;;8.15;3.30;;;;;;;;;;10265414;28;20041;-65
2022/04/15 08:17:40;;;;;;;11.68;4.97;;;;;;;;;;10274865;28;20073;-65
2022/04/15 08:22:38;;;;;;;13.38;8.95;;;;;;;;;;10275764;28;20506;-68
2022/04/15 08:27:36;;;;;;;10.48;6.15;;;;;;;;;;10272037;28;20052;-68
2022/04/15 08:32:34;;;;;;;6.63;5.93;;;;;;;;;;10267454;28;20531;-68
2022/04/15 08:37:39;;;;;;;8.40;3.10;;;;;;;;;;10259433;28;20064;-67
2022/04/15 08:42:37;;;;;;;7.30;3.72;;;;;;;;;;10265210;28;20131;-67
2022/04/15 08:47:37;;;;;;;7.13;3.28;;;;;;;;;;10265060;28;20075;-67
2022/04/15 08:52:35;;;;;;;8.15;3.92;;;;;;;;;;10260260;28;20422;-68
2022/04/15 08:57:35;;;;;;;10.00;3.80;;;;;;;;;;10263900;28;20106;-67
2022/04/15 09:02:35;;;;;;;7.82;3.15;;;;;;;;;;10252300;28;20069;-66
2022/04/15 09:07:40;;;;;;;7.50;5.07;;;;;;;;;;10243765;28;20033;-67
2022/04/15 09:12:40;;;;;;;7.95;5.30;;;;;;;;;;10244505;28;20049;-66
2022/04/15 09:17:38;;;;;;;7.05;4.05;;;;;;;;;;10244148;28;20069;-67
2022/04/15 09:22:37;;;;;;;9.73;2.95;;;;;;;;;;10244066;28;20072;-67
2022/04/15 09:27:36;;;;;;;5.80;3.03;;;;;;;;;;10243298;28;20045;-67
2022/04/15 09:32:35;;;;;;;12.45;4.55;;;;;;;;;;10238298;28;20492;-67
2022/04/15 09:37:38;;;;;;;7.72;5.30;;;;;;;;;;10242723;28;20072;-68
2022/04/15 09:42:37;;;;;;;10.57;3.15;;;;;;;;;;10232350;28;20084;-67
2022/04/15 09:47:36;;;;;;;7.28;3.58;;;;;;;;;;10239246;28;20044;-66
2022/04/15 09:52:35;;;;;;;8.82;3.35;;;;;;;;;;10242420;28;20084;-66
2022/04/15 09:57:34;;;;;;;9.63;5.97;;;;;;;;;;10236374;28;20522;-66
2022/04/15 10:02:36;;;;;;;3.28;2.95;;;;;;;;;;10232803;28;20454;-67
2022/04/15 10:07:38;;;;;;;26.23;5.40;;;;;;;;;;10231976;28;20497;-67
2022/04/15 10:12:39;;;;;;;4.80;2.78;;;;;;;;;;10237725;28;20065;-67
2022/04/15 10:17:39;;;;;;;4.88;2.72;;;;;;;;;;10239944;28;20080;-67
2022/04/15 10:22:39;;;;;;;3.08;2.20;;;;;;;;;;10263270;28;20069;-67
2022/04/15 10:27:38;;;;;;;2.53;2.33;;;;;;;;;;10257593;28;20080;-67
2022/04/15 10:32:49;;;;;;;6.07;3.35;;;;;;;;;;10263076;28;20525;-67
2022/04/15 10:37:53;;;;;;;4.57;3.42;;;;;;;;;;10261288;28;20099;-67
2022/04/15 10:42:52;;;;;;;4.10;3.03;;;;;;;;;;10247073;28;20524;-67
2022/04/15 10:47:55;;;;;;;12.23;5.07;;;;;;;;;;10244918;28;20459;-67
2022/04/15 10:53:15;;;;;;;7.28;3.00;;;;;;;;;;10278387;28;20072;-67
2022/04/15 10:58:14;;;;;;;4.55;3.38;;;;;;;;;;10278360;28;20053;-67
2022/04/15 11:03:20;;;;;;;7.75;3.10;;;;;;;;;;10279467;28;20041;-66
2022/04/15 11:08:20;;;;;;;5.20;2.88;;;;;;;;;;10237262;28;20075;-67
2022/04/15 11:13:32;;;;;;;7.63;2.47;;;;;;;;;;10243025;28;20505;-64
2022/04/15 11:18:47;;;;;;;18.00;4.88;;;;;;;;;;10246690;28;20087;-65
2022/04/15 11:23:50;;;;;;;5.05;3.05;;;;;;;;;;10264925;28;20640;-65
2022/04/15 11:28:50;;;;;;;16.77;3.45;;;;;;;;;;10253262;28;20049;-67
2022/04/15 11:33:48;;;;;;;5.05;3.30;;;;;;;;;;10248385;28;20072;-66
2022/04/15 11:38:47;;;;;;;4.13;3.00;;;;;;;;;;10248189;28;20080;-65
2022/04/15 11:43:54;;;;;;;6.03;3.30;;;;;;;;;;10254254;28;20093;-67
2022/04/15 11:48:55;;;;;;;5.68;2.85;;;;;;;;;;10264330;28;20447;-66
2022/04/15 11:53:56;;;;;;;3.53;2.65;;;;;;;;;;10247507;28;20046;-66
2022/04/15 11:58:57;;;;;;;4.72;2.80;;;;;;;;;;10241289;28;20522;-66
2022/04/15 12:03:56;;;;;;;4.90;2.50;;;;;;;;;;10263214;28;20438;-67
2022/04/15 12:08:56;;;;;;;18.95;4.32;;;;;;;;;;10247233;28;20512;-66
2022/04/15 12:13:59;;;;;;;3.78;2.72;;;;;;;;;;10249235;28;20061;-66
2022/04/15 12:18:59;;;;;;;3.42;2.50;;;;;;;;;;10257072;28;20077;-66
2022/04/15 12:24:04;;;;;;;5.05;2.97;;;;;;;;;;10245860;28;20077;-64
2022/04/15 12:34:31;;;;;;;5.88;2.75;;;;;;;;;;10262633;28;20052;-64
2022/04/15 12:39:29;;;;;;;10.93;3.63;;;;;;;;;;10262812;28;20099;-66
2022/04/15 12:44:30;;;;;;;9.20;4.13;;;;;;;;;;10257453;28;20088;-66
2022/04/15 12:49:30;;;;;;;3.58;3.08;;;;;;;;;;10245823;28;20466;-66
2022/04/15 12:54:28;;;;;;;3.28;2.80;;;;;;;;;;10245548;28;20077;-67
2022/04/15 12:59:27;;;;;;;6.50;3.90;;;;;;;;;;10249875;28;20063;-67
2022/04/15 13:04:28;;;;;;;4.30;2.80;;;;;;;;;;10257098;28;20140;-67
2022/04/15 13:09:26;;;;;;;5.60;3.00;;;;;;;;;;10245124;28;20080;-68
2022/04/15 13:14:24;;;;;;;3.35;3.05;;;;;;;;;;10245273;28;20453;-68
2022/04/15 13:19:22;;;;;;;5.32;3.75;;;;;;;;;;10249739;28;20068;-67
2022/04/15 13:24:22;;;;;;;3.50;2.40;;;;;;;;;;10256522;28;20065;-67
2022/04/15 13:29:20;;;;;;;8.20;3.90;;;;;;;;;;10248414;28;20073;-68
2022/04/15 13:34:19;;;;;;;5.70;2.97;;;;;;;;;;10257274;28;20045;-68
2022/04/15 13:39:17;;;;;;;4.63;3.17;;;;;;;;;;10244342;28;20068;-68
2022/04/15 13:44:16;;;;;;;3.75;2.60;;;;;;;;;;10246889;28;20080;-68
2022/04/15 13:49:15;;;;;;;5.72;2.83;;;;;;;;;;10253257;28;20085;-68
2022/04/15 13:59:30;;;;;;;4.70;2.90;;;;;;;;;;10244246;28;20100;-66
2022/04/15 14:04:29;;;;;;;3.75;2.53;;;;;;;;;;10258060;28;20085;-67
2022/04/15 14:09:27;;;;;;;3.25;2.30;;;;;;;;;;10255787;28;20069;-67
2022/04/15 14:14:25;;;;;;;2.95;2.40;;;;;;;;;;10243053;28;20077;-67
2022/04/15 14:19:25;;;;;;;7.75;4.45;;;;;;;;;;10251958;28;20088;-67
2022/04/15 14:24:23;;;;;;;6.97;3.55;;;;;;;;;;10255937;28;20068;-66
2022/04/15 14:29:22;;;;;;;5.60;2.40;;;;;;;;;;10263886;28;20042;-66
2022/04/15 14:34:20;;;;;;;3.75;2.42;;;;;;;;;;10250943;28;20076;-66
2022/04/15 14:39:20;;;;;;;6.63;3.20;;;;;;;;;;10251009;28;20145;-66
2022/04/15 14:44:19;;;;;;;5.80;2.65;;;;;;;;;;10251159;28;20506;-66
2022/04/15 14:49:17;;;;;;;6.38;3.35;;;;;;;;;;10251121;28;20079;-66
2022/04/15 14:54:15;;;;;;;7.05;4.18;;;;;;;;;;10250560;28;20077;-66
2022/04/15 14:59:15;;;;;;;19.88;12.00;;;;;;;;;;10253223;28;20077;-67
2022/04/15 15:04:14;;;;;;;3.17;2.78;;;;;;;;;;10266267;28;20037;-65
2022/04/15 15:09:29;;;;;;;6.05;3.15;;;;;;;;;;10260859;28;20084;-66
2022/04/15 15:14:29;;;;;;;3.38;2.78;;;;;;;;;;10249395;28;20069;-67
2022/04/15 15:19:27;;;;;;;4.18;3.78;;;;;;;;;;10254749;28;20073;-66
2022/04/15 15:29:51;;;;;;;5.72;3.13;;;;;;;;;;10255489;28;20072;-67
2022/04/15 15:34:50;;;;;;;5.00;3.30;;;;;;;;;;10265317;28;20417;-65
2022/04/15 15:39:48;;;;;;;2.50;2.30;;;;;;;;;;10278094;28;20048;-66
2022/04/15 15:44:48;;;;;;;6.72;3.67;;;;;;;;;;10278351;28;20092;-66
2022/04/15 15:49:46;;;;;;;5.78;4.60;;;;;;;;;;10257282;28;20087;-66
2022/04/15 15:54:44;;;;;;;4.45;2.90;;;;;;;;;;10248006;28;20081;-67
2022/04/15 15:59:42;;;;;;;10.18;5.85;;;;;;;;;;10247950;28;20077;-65
2022/04/15 16:04:42;;;;;;;9.18;6.35;;;;;;;;;;10247645;28;20076;-65
2022/04/15 16:09:40;;;;;;;12.18;5.47;;;;;;;;;;10246603;28;20076;-66
2022/04/15 16:14:39;;;;;;;8.23;6.82;;;;;;;;;;10246998;28;20079;-65
2022/04/15 16:19:38;;;;;;;11.05;6.13;;;;;;;;;;10246810;28;20065;-65
2022/04/15 16:24:37;;;;;;;10.98;7.43;;;;;;;;;;10234423;28;20053;-66
2022/04/15 16:29:36;;;;;;;12.10;6.45;;;;;;;;;;10235047;28;20087;-66
2022/04/15 16:34:34;;;;;;;6.45;5.35;;;;;;;;;;10235118;28;20049;-66
2022/04/15 16:39:32;;;;;;;9.50;6.47;;;;;;;;;;10234532;28;20041;-65
2022/04/15 16:44:32;;;;;;;22.15;14.40;;;;;;;;;;10235284;28;20509;-65
2022/04/15 16:49:30;;;;;;;16.08;10.23;;;;;;;;;;10243327;28;20076;-66
2022/04/15 16:59:42;;;;;;;32.88;24.33;;;;;;;;;;10254476;28;20069;-66
2022/04/15 17:04:41;;;;;;;24.92;18.20;;;;;;;;;;10234791;28;20077;-66
2022/04/15 17:09:39;;;;;;;38.42;32.10;;;;;;;;;;10234434;28;20088;-66
2022/04/15 17:14:37;;;;;;;28.63;18.00;;;;;;;;;;10244911;28;20087;-65
2022/04/15 17:19:39;;;;;;;11.10;6.05;;;;;;;;;;10251066;28;20512;-65
2022/04/15 17:24:37;;;;;;;8.38;6.40;;;;;;;;;;10261400;28;20073;-66
2022/04/15 17:29:36;;;;;;;10.00;4.65;;;;;;;;;;10255043;28;20080;-67
2022/04/15 17:34:34;;;;;;;17.23;10.82;;;;;;;;;;10244289;28;20066;-66
2022/04/15 17:39:34;;;;;;;20.05;13.40;;;;;;;;;;10249947;28;20060;-65
2022/04/15 17:44:33;;;;;;;11.07;8.98;;;;;;;;;;10273717;28;20402;-67
2022/04/15 17:49:31;;;;;;;12.02;8.32;;;;;;;;;;10276790;28;20461;-65
2022/04/15 17:54:29;;;;;;;13.85;10.95;;;;;;;;;;10274594;28;20060;-66
2022/04/15 17:59:29;;;;;;;12.45;8.57;;;;;;;;;;10268986;28;20061;-66
2022/04/15 18:04:29;;;;;;;23.58;17.83;;;;;;;;;;10262232;28;20080;-66
2022/04/15 18:09:27;;;;;;;41.97;30.17;;;;;;;;;;10273743;28;20064;-67
2022/04/15 18:14:28;;;;;;;49.45;33.88;;;;;;;;;;10268507;28;20228;-67
2022/04/15 18:19:27;;;;;;;28.15;19.67;;;;;;;;;;10256994;28;20076;-66
2022/04/15 18:24:25;;;;;;;27.48;22.63;;;;;;;;;;10270757;28;20489;-66
2022/04/15 18:29:24;;;;;;;21.00;12.20;;;;;;;;;;10269243;28;20084;-66
2022/04/15 18:34:23;;;;;;;47.13;15.55;;;;;;;;;;10256500;28;20069;-66
2022/04/15 18:39:22;;;;;;;17.77;9.95;;;;;;;;;;10259931;28;20494;-65
2022/04/15 18:44:20;;;;;;;15.40;9.75;;;;;;;;;;10269108;28;20091;-66
2022/04/15 18:54:56;;;;;;;11.70;9.23;;;;;;;;;;10264592;28;20075;-66
2022/04/15 18:59:54;;;;;;;5.10;4.25;;;;;;;;;;10263756;28;20069;-66
2022/04/15 19:04:54;;;;;;;9.52;6.13;;;;;;;;;;10249393;28;20092;-66
2022/04/15 19:09:52;;;;;;;8.73;7.13;;;;;;;;;;10238523;28;20077;-66
2022/04/15 19:14:51;;;;;;;5.90;4.47;;;;;;;;;;10238362;28;20045;-66
2022/04/15 19:19:49;;;;;;;6.30;4.43;;;;;;;;;;10247831;28;20052;-66
2022/04/15 19:24:49;;;;;;;6.25;4.00;;;;;;;;;;10248706;28;20080;-65
2022/04/15 19:29:48;;;;;;;9.95;8.77;;;;;;;;;;10256365;28;20076;-66
2022/04/15 19:34:46;;;;;;;6.93;4.53;;;;;;;;;;10257896;28;20100;-65
2022/04/15 19:39:44;;;;;;;5.28;3.60;;;;;;;;;;10248644;28;20064;-66
2022/04/15 19:44:44;;;;;;;3.92;3.53;;;;;;;;;;10255975;28;20057;-66
2022/04/15 19:49:43;;;;;;;5.57;3.40;;;;;;;;;;10257923;28;20088;-65
2022/04/15 19:54:41;;;;;;;4.07;3.03;;;;;;;;;;10247616;28;20077;-65
2022/04/15 20:04:57;;;;;;;8.13;3.30;;;;;;;;;;10247631;28;20049;-66
2022/04/15 20:09:56;;;;;;;4.50;2.78;;;;;;;;;;10247150;28;20081;-66
2022/04/15 20:14:54;;;;;;;3.97;3.45;;;;;;;;;;10257532;28;20518;-65
2022/04/15 20:19:53;;;;;;;6.80;3.30;;;;;;;;;;10278654;28;20064;-65
2022/04/15 20:24:53;;;;;;;5.75;3.88;;;;;;;;;;10262696;28;20065;-65
2022/04/15 20:29:51;;;;;;;14.40;7.57;;;;;;;;;;10260804;28;20069;-64
2022/04/15 20:34:49;;;;;;;7.43;3.75;;;;;;;;;;10260034;28;20083;-64
2022/04/15 20:39:50;;;;;;;8.15;6.13;;;;;;;;;;10254931;28;20076;-65
2022/04/15 20:44:50;;;;;;;6.45;3.97;;;;;;;;;;10264524;28;20096;-65
2022/04/15 20:49:51;;;;;;;6.43;4.22;;;;;;;;;;10260348;28;20494;-66
2022/04/15 20:54:50;;;;;;;9.15;5.65;;;;;;;;;;10264752;28;20076;-65
2022/04/15 21:00:06;;;;;;;11.88;4.00;;;;;;;;;;10263126;28;20072;-65
2022/04/15 21:05:06;;;;;;;5.05;3.30;;;;;;;;;;10256989;28;20072;-64
2022/04/15 21:10:05;;;;;;;7.75;3.60;;;;;;;;;;10265001;28;20075;-65
2022/04/15 21:15:06;;;;;;;6.47;4.18;;;;;;;;;;10269848;28;20720;-64
2022/04/15 21:20:05;;;;;;;8.05;3.85;;;;;;;;;;10253793;28;20080;-64
2022/04/15 21:25:04;;;;;;;7.00;3.40;;;;;;;;;;10259594;28;20059;-66
2022/04/15 21:30:03;;;;;;;4.90;2.80;;;;;;;;;;10253990;28;20088;-64
2022/04/15 21:35:03;;;;;;;8.23;3.22;;;;;;;;;;10250641;28;20072;-66
2022/04/15 21:40:01;;;;;;;7.55;3.70;;;;;;;;;;10231382;28;20080;-64
2022/04/15 21:44:59;;;;;;;5.60;3.30;;;;;;;;;;10253876;28;20061;-64
2022/04/15 21:49:57;;;;;;;4.93;3.33;;;;;;;;;;10251877;28;20161;-65
2022/04/15 21:54:57;;;;;;;9.27;3.67;;;;;;;;;;10253174;28;20045;-63
2022/04/15 21:59:56;;;;;;;6.18;3.30;;;;;;;;;;10251629;28;20076;-63
2022/04/15 22:04:54;;;;;;;15.70;4.32;;;;;;;;;;10252744;28;20073;-64
2022/04/15 22:09:53;;;;;;;5.55;3.53;;;;;;;;;;10251405;28;20097;-65
2022/04/15 22:14:52;;;;;;;4.65;3.05;;;;;;;;;;10243876;28;20053;-64
2022/04/15 22:19:53;;;;;;;7.38;3.40;;;;;;;;;;10233140;28;20056;-65
2022/04/15 22:24:51;;;;;;;6.13;3.30;;;;;;;;;;10252164;28;20080;-64
2022/04/15 22:29:49;;;;;;;5.93;3.47;;;;;;;;;;10272586;28;20073;-64
2022/04/15 22:34:49;;;;;;;5.57;3.20;;;;;;;;;;10252372;28;20077;-64
2022/04/15 22:39:47;;;;;;;8.55;3.83;;;;;;;;;;10254585;28;20065;-65
2022/04/15 22:44:47;;;;;;;4.68;3.83;;;;;;;;;;10265802;28;20122;-64
2022/04/15 22:49:46;;;;;;;6.97;3.83;;;;;;;;;;10266911;28;20084;-65
2022/04/15 23:00:01;;;;;;;6.35;3.85;;;;;;;;;;10250940;28;20077;-64
2022/04/15 23:05:02;;;;;;;5.28;4.55;;;;;;;;;;10250084;28;20538;-64
2022/04/15 23:10:01;;;;;;;6.47;4.03;;;;;;;;;;10268818;28;20087;-64
2022/04/15 23:14:59;;;;;;;5.47;3.33;;;;;;;;;;10264198;28;20493;-64
2022/04/15 23:19:58;;;;;;;7.03;4.35;;;;;;;;;;10257851;28;20076;-64
2022/04/15 23:24:56;;;;;;;8.30;4.65;;;;;;;;;;10240192;28;20068;-64
2022/04/15 23:29:55;;;;;;;5.20;4.20;;;;;;;;;;10239739;28;20111;-64
2022/04/15 23:34:54;;;;;;;5.30;4.20;;;;;;;;;;10240112;28;20049;-63
2022/04/15 23:39:52;;;;;;;4.03;3.15;;;;;;;;;;10258628;28;20056;-64
2022/04/15 23:44:50;;;;;;;6.03;3.75;;;;;;;;;;10267514;28;20060;-63
2022/04/15 23:49:50;;;;;;;8.73;3.63;;;;;;;;;;10258558;28;20533;-63
2022/04/15 23:54:48;;;;;;;3.83;3.42;;;;;;;;;;10249794;28;20069;-63
2022/04/15 23:59:46;;;;;;;5.47;3.90;;;;;;;;;;10248173;28;20052;-64
